Time;durP1;ratioP1;P1;durP2;ratioP2;P2;SDS_P1;SDS_P2;PMS_P1;PMS_P2;Temp;Humidity;BMP_temperature;BMP_pressure;BME280_temperature;BME280_humidity;BME280_pressure;Samples;Min_cycle;Max_cycle;Signal;HPM_P1;HPM_P2
2021/09/28 00:00:34;;;;;;;1.03;1.03;;;21.50;58.60;;;;;;5076109;28;20429;-48
2021/09/28 00:03:00;;;;;;;0.87;0.73;;;21.20;59.10;;;;;;5082044;28;20604;-49
2021/09/28 00:05:26;;;;;;;2.03;0.80;;;21.30;59.20;;;;;;5080227;28;20533;-48
2021/09/28 00:07:52;;;;;;;2.20;1.00;;;21.20;59.70;;;;;;5080744;28;20801;-51
2021/09/28 00:10:17;;;;;;;0.90;0.80;;;21.10;60.30;;;;;;5075185;28;20199;-48
2021/09/28 00:12:43;;;;;;;0.90;0.80;;;21.30;60.00;;;;;;5074317;28;20250;-49
2021/09/28 00:15:11;;;;;;;1.20;1.10;;;21.40;59.60;;;;;;5083590;28;20643;-49
2021/09/28 00:17:37;;;;;;;3.30;1.00;;;21.50;59.40;;;;;;5078467;28;20952;-47
2021/09/28 00:20:05;;;;;;;2.60;1.20;;;21.60;58.90;;;;;;5075929;28;20474;-49
2021/09/28 00:22:31;;;;;;;0.90;0.90;;;21.60;58.70;;;;;;5078309;28;20913;-50
2021/09/28 00:24:56;;;;;;;0.80;0.80;;;21.50;58.90;;;;;;5077768;28;20565;-47
2021/09/28 00:27:22;;;;;;;0.63;0.60;;;21.40;59.20;;;;;;5079589;28;20686;-48
2021/09/28 00:29:48;;;;;;;1.60;1.00;;;21.50;59.20;;;;;;5082190;28;20587;-48
2021/09/28 00:32:13;;;;;;;0.87;0.87;;;21.30;59.20;;;;;;5073644;28;20253;-48
2021/09/28 00:34:40;;;;;;;2.77;1.07;;;21.30;59.40;;;;;;5080418;28;20702;-51
2021/09/28 00:37:06;;;;;;;1.53;1.30;;;21.30;59.30;;;;;;5080597;28;20334;-53
2021/09/28 00:39:32;;;;;;;2.00;0.90;;;21.30;59.30;;;;;;5082012;28;20823;-50
2021/09/28 00:41:58;;;;;;;0.80;0.80;;;21.20;58.60;;;;;;5081286;28;20471;-47
2021/09/28 00:44:39;;;;;;;2.47;0.67;;;21.20;58.40;;;;;;5073040;28;20219;-48
2021/09/28 00:47:06;;;;;;;1.60;0.83;;;21.20;58.30;;;;;;5082943;28;20199;-50
2021/09/28 00:49:32;;;;;;;0.80;0.70;;;21.20;58.10;;;;;;5077877;28;22328;-48
2021/09/28 00:51:58;;;;;;;1.73;0.80;;;21.20;57.60;;;;;;5077886;28;20449;-47
2021/09/28 00:54:24;;;;;;;1.50;0.90;;;21.10;57.30;;;;;;5073737;28;20187;-48
2021/09/28 00:56:51;;;;;;;1.10;0.80;;;21.20;57.50;;;;;;5076995;28;20448;-48
2021/09/28 00:59:16;;;;;;;2.37;1.20;;;21.10;57.70;;;;;;5077639;28;20271;-50
2021/09/28 01:01:42;;;;;;;2.10;1.17;;;21.00;57.80;;;;;;5077891;28;20908;-49
2021/09/28 01:04:08;;;;;;;1.20;0.80;;;21.00;57.90;;;;;;5070702;28;20853;-50
2021/09/28 01:06:33;;;;;;;1.27;1.17;;;20.90;57.60;;;;;;5074474;28;20550;-49
2021/09/28 01:09:00;;;;;;;1.40;1.00;;;20.90;57.60;;;;;;5072410;28;20562;-50
2021/09/28 01:11:26;;;;;;;2.50;1.50;;;20.60;57.60;;;;;;5078693;28;20195;-48
2021/09/28 01:13:51;;;;;;;3.50;1.30;;;20.40;58.50;;;;;;5071302;28;20449;-49
2021/09/28 01:16:17;;;;;;;1.67;0.93;;;20.20;59.20;;;;;;5075742;28;20434;-48
2021/09/28 01:18:43;;;;;;;3.67;1.50;;;20.20;59.60;;;;;;5079888;28;20638;-48
2021/09/28 01:21:13;;;;;;;4.13;1.30;;;20.20;59.60;;;;;;5071145;28;20196;-48
2021/09/28 01:23:44;;;;;;;4.03;1.43;;;20.10;59.70;;;;;;5076788;28;20480;-47
2021/09/28 01:26:13;;;;;;;1.37;1.07;;;20.10;60.30;;;;;;5074057;28;20458;-48
2021/09/28 01:28:39;;;;;;;1.70;1.03;;;20.10;60.40;;;;;;5077224;28;20584;-51
2021/09/28 01:31:05;;;;;;;1.87;1.10;;;20.20;60.30;;;;;;5075980;28;20441;-53
2021/09/28 01:33:30;;;;;;;1.30;0.90;;;20.30;60.20;;;;;;5073451;28;20894;-48
2021/09/28 01:35:56;;;;;;;2.30;1.00;;;20.20;59.90;;;;;;5073125;28;20191;-50
2021/09/28 01:38:22;;;;;;;1.63;0.80;;;20.30;60.00;;;;;;5082155;28;20187;-49
2021/09/28 01:40:48;;;;;;;1.20;1.10;;;20.20;60.20;;;;;;5073784;28;20188;-48
2021/09/28 01:43:14;;;;;;;1.40;1.00;;;20.20;60.60;;;;;;5074380;28;20223;-49
2021/09/28 01:45:42;;;;;;;2.43;1.20;;;20.10;60.10;;;;;;5078158;28;20437;-52
2021/09/28 01:48:07;;;;;;;3.40;1.30;;;20.00;61.30;;;;;;5079503;28;20426;-51
2021/09/28 01:50:34;;;;;;;1.83;1.30;;;20.00;60.70;;;;;;5073553;28;20430;-47
2021/09/28 01:53:00;;;;;;;5.40;2.13;;;20.10;61.00;;;;;;5073802;28;20552;-50
2021/09/28 01:55:27;;;;;;;3.20;1.00;;;20.10;61.00;;;;;;5076790;28;20445;-49
2021/09/28 01:57:56;;;;;;;0.83;0.83;;;20.10;60.80;;;;;;5066114;28;20503;-53
2021/09/28 02:00:23;;;;;;;5.53;1.60;;;20.10;61.10;;;;;;5078162;28;20960;-51
2021/09/28 02:02:48;;;;;;;1.40;1.10;;;20.20;60.80;;;;;;5076009;28;21081;-52
2021/09/28 02:05:14;;;;;;;3.00;0.93;;;20.20;60.60;;;;;;5073143;28;20429;-50
2021/09/28 02:07:39;;;;;;;1.30;0.97;;;20.30;60.40;;;;;;5075315;28;20184;-52
2021/09/28 02:10:06;;;;;;;2.60;1.00;;;20.40;60.40;;;;;;5078867;28;20252;-51
2021/09/28 02:12:35;;;;;;;1.67;1.27;;;20.30;59.90;;;;;;5073981;28;20227;-51
2021/09/28 02:15:01;;;;;;;1.90;1.10;;;20.30;60.00;;;;;;5069598;28;20498;-50
2021/09/28 02:17:26;;;;;;;5.00;1.20;;;20.20;60.10;;;;;;5071593;28;20938;-52
2021/09/28 02:19:52;;;;;;;3.00;0.93;;;20.20;60.10;;;;;;5070868;28;20195;-48
2021/09/28 02:22:17;;;;;;;1.20;0.90;;;20.20;60.10;;;;;;5070080;28;20578;-52
2021/09/28 02:24:43;;;;;;;1.10;0.90;;;20.00;60.20;;;;;;5074379;28;20264;-50
2021/09/28 02:27:09;;;;;;;1.10;0.97;;;20.10;60.40;;;;;;5074842;28;20638;-51
2021/09/28 02:29:34;;;;;;;4.20;1.30;;;20.00;60.10;;;;;;5080018;28;20634;-48
2021/09/28 02:32:00;;;;;;;3.00;1.90;;;20.10;60.10;;;;;;5077221;28;20275;-52
2021/09/28 02:34:26;;;;;;;2.93;1.13;;;20.10;59.90;;;;;;5073248;28;20199;-48
2021/09/28 02:36:52;;;;;;;1.10;1.00;;;20.20;59.70;;;;;;5071202;28;20206;-49
2021/09/28 02:39:18;;;;;;;2.50;0.90;;;20.20;59.70;;;;;;5074510;28;20440;-49
2021/09/28 02:41:45;;;;;;;2.07;0.70;;;20.20;59.70;;;;;;5077480;28;20245;-48
2021/09/28 02:44:11;;;;;;;1.50;1.23;;;20.20;59.70;;;;;;5072917;28;20532;-47
2021/09/28 02:46:36;;;;;;;1.90;0.97;;;20.20;59.70;;;;;;5076710;28;20441;-47
2021/09/28 02:49:03;;;;;;;3.33;1.00;;;20.20;59.80;;;;;;5078218;28;20777;-48
2021/09/28 02:51:29;;;;;;;4.17;1.20;;;20.20;59.90;;;;;;5074250;28;20191;-48
2021/09/28 02:53:55;;;;;;;1.07;0.90;;;20.20;59.70;;;;;;5073836;28;20440;-53
2021/09/28 02:56:21;;;;;;;3.60;1.13;;;20.20;59.80;;;;;;5075856;28;20800;-48
2021/09/28 02:58:46;;;;;;;3.40;1.20;;;20.20;59.80;;;;;;5077470;28;20199;-47
2021/09/28 03:01:12;;;;;;;1.90;1.00;;;20.20;59.70;;;;;;5080320;28;20474;-49
2021/09/28 03:03:37;;;;;;;2.63;1.17;;;20.20;59.70;;;;;;5074518;28;21665;-48
2021/09/28 03:06:05;;;;;;;3.73;1.57;;;20.20;59.70;;;;;;5075136;28;20188;-53
2021/09/28 03:08:33;;;;;;;3.73;1.20;;;20.20;59.80;;;;;;5072513;28;20842;-48
2021/09/28 03:11:00;;;;;;;4.10;1.53;;;20.20;60.00;;;;;;5075868;28;20955;-48
2021/09/28 03:13:26;;;;;;;2.00;1.23;;;20.20;59.90;;;;;;5072780;28;20441;-48
2021/09/28 03:15:52;;;;;;;3.97;1.47;;;20.20;59.90;;;;;;5073952;28;20473;-53
2021/09/28 03:18:17;;;;;;;2.20;1.10;;;20.10;59.90;;;;;;5073354;28;20283;-48
2021/09/28 03:20:43;;;;;;;2.03;1.40;;;20.10;59.80;;;;;;5076972;28;20207;-49
2021/09/28 03:23:08;;;;;;;2.80;1.40;;;20.20;59.90;;;;;;5075443;28;20222;-50
2021/09/28 03:25:35;;;;;;;1.60;1.50;;;20.20;60.10;;;;;;5081285;28;20188;-49
2021/09/28 03:28:02;;;;;;;3.03;1.40;;;20.10;60.30;;;;;;5079752;28;20223;-50
2021/09/28 03:30:28;;;;;;;1.50;1.00;;;20.10;60.30;;;;;;5077806;28;20441;-49
2021/09/28 03:32:54;;;;;;;3.63;1.80;;;20.10;60.10;;;;;;5076608;28;20943;-52
2021/09/28 03:35:20;;;;;;;1.80;1.43;;;20.10;60.10;;;;;;5075261;28;20448;-50
2021/09/28 03:37:49;;;;;;;4.10;1.30;;;20.10;60.10;;;;;;5074688;28;20643;-51
2021/09/28 03:40:15;;;;;;;1.97;1.40;;;20.10;60.20;;;;;;5074621;28;20196;-47
2021/09/28 03:42:41;;;;;;;1.63;1.10;;;20.10;60.10;;;;;;5079667;28;21361;-49
2021/09/28 03:45:07;;;;;;;1.67;1.17;;;20.10;60.20;;;;;;5077395;28;20188;-52
2021/09/28 03:47:33;;;;;;;3.60;1.70;;;20.10;60.30;;;;;;5076418;28;20274;-48
2021/09/28 03:49:58;;;;;;;2.50;1.50;;;20.10;60.30;;;;;;5077388;28;21004;-48
2021/09/28 03:52:24;;;;;;;3.07;1.17;;;20.10;60.40;;;;;;5075191;28;20202;-49
2021/09/28 03:54:49;;;;;;;3.27;1.00;;;20.10;60.30;;;;;;5080659;28;20195;-48
2021/09/28 03:57:15;;;;;;;3.93;1.30;;;20.10;60.20;;;;;;5078589;28;20278;-50
2021/09/28 03:59:40;;;;;;;1.73;1.30;;;20.00;60.10;;;;;;5068530;28;20192;-50
2021/09/28 04:02:06;;;;;;;2.93;1.40;;;20.00;60.30;;;;;;5074398;28;20208;-52
2021/09/28 04:04:32;;;;;;;3.67;1.03;;;20.00;60.30;;;;;;5077340;28;20252;-47
2021/09/28 04:06:59;;;;;;;2.23;1.30;;;20.00;60.00;;;;;;5080384;28;20207;-49
2021/09/28 04:09:25;;;;;;;3.20;1.20;;;20.00;60.00;;;;;;5077219;28;20244;-48
2021/09/28 04:11:51;;;;;;;2.27;1.40;;;19.90;60.00;;;;;;5073328;28;20955;-50
2021/09/28 04:14:16;;;;;;;2.23;1.10;;;19.90;60.20;;;;;;5073778;28;20449;-47
2021/09/28 04:16:42;;;;;;;2.77;1.60;;;19.90;60.20;;;;;;5080620;28;20670;-50
2021/09/28 04:19:08;;;;;;;3.93;1.77;;;19.90;60.30;;;;;;5075180;28;21008;-47
2021/09/28 04:21:34;;;;;;;2.00;1.37;;;19.80;60.30;;;;;;5074919;28;20279;-49
2021/09/28 04:24:00;;;;;;;2.37;1.30;;;19.80;60.30;;;;;;5073243;28;20227;-53
2021/09/28 04:26:26;;;;;;;2.60;1.40;;;19.80;60.30;;;;;;5079661;28;20437;-48
2021/09/28 04:28:51;;;;;;;5.30;1.53;;;19.80;60.50;;;;;;5075274;28;21009;-50
2021/09/28 04:31:18;;;;;;;1.50;1.37;;;19.80;60.30;;;;;;5080870;28;20199;-52
2021/09/28 04:33:44;;;;;;;2.47;1.23;;;19.80;60.20;;;;;;5082155;28;20729;-49
2021/09/28 04:36:10;;;;;;;4.17;1.50;;;19.80;60.40;;;;;;5079714;28;20529;-48
2021/09/28 04:38:35;;;;;;;1.90;1.30;;;19.70;60.20;;;;;;5077551;28;20297;-48
2021/09/28 04:41:02;;;;;;;4.33;1.93;;;19.80;60.20;;;;;;5074805;28;20437;-49
2021/09/28 04:43:27;;;;;;;2.90;1.57;;;19.70;60.10;;;;;;5077345;28;21275;-52
2021/09/28 04:45:53;;;;;;;2.33;1.47;;;19.70;60.00;;;;;;5075692;28;20441;-48
2021/09/28 04:48:18;;;;;;;2.37;1.60;;;19.70;60.20;;;;;;5080019;28;20673;-48
2021/09/28 04:50:46;;;;;;;3.20;1.70;;;19.70;60.20;;;;;;5079497;28;20195;-51
2021/09/28 04:53:13;;;;;;;2.23;2.03;;;19.70;60.20;;;;;;5074886;28;20246;-49
2021/09/28 04:55:39;;;;;;;2.10;1.90;;;19.70;60.20;;;;;;5078057;28;20437;-47
2021/09/28 04:58:04;;;;;;;3.27;2.53;;;19.60;60.30;;;;;;5075205;28;20453;-49
2021/09/28 05:00:31;;;;;;;5.20;2.40;;;19.60;60.40;;;;;;5078130;28;20445;-51
2021/09/28 05:02:56;;;;;;;4.60;2.67;;;19.60;60.60;;;;;;5081384;28;20227;-48
2021/09/28 05:05:22;;;;;;;3.30;3.00;;;19.60;60.70;;;;;;5082328;28;20452;-47
2021/09/28 05:07:47;;;;;;;3.07;2.83;;;19.60;61.10;;;;;;5077174;28;20199;-47
2021/09/28 05:10:13;;;;;;;7.87;2.37;;;19.60;61.10;;;;;;5080106;28;20910;-51
2021/09/28 05:12:39;;;;;;;4.80;1.50;;;19.60;61.10;;;;;;5071766;28;20237;-49
2021/09/28 05:15:05;;;;;;;3.67;1.90;;;19.50;64.40;;;;;;5071142;28;20184;-47
2021/09/28 05:17:31;;;;;;;3.10;1.80;;;19.60;69.20;;;;;;5074436;28;20196;-47
2021/09/28 05:19:56;;;;;;;3.60;1.93;;;19.90;66.40;;;;;;5071543;28;20473;-52
2021/09/28 05:22:22;;;;;;;4.00;2.50;;;20.20;64.40;;;;;;5076165;28;20694;-48
2021/09/28 05:24:47;;;;;;;8.90;4.03;;;20.40;61.20;;;;;;5073163;28;20350;-50
2021/09/28 05:27:14;;;;;;;5.57;3.60;;;20.60;60.20;;;;;;5072348;28;20634;-50
2021/09/28 05:29:40;;;;;;;5.90;2.70;;;20.60;59.20;;;;;;5083684;28;20231;-48
2021/09/28 05:32:06;;;;;;;4.97;3.40;;;20.50;59.30;;;;;;5072305;28;20527;-48
2021/09/28 05:34:32;;;;;;;6.73;3.70;;;20.60;59.60;;;;;;5072531;28;20592;-47
2021/09/28 05:36:58;;;;;;;6.40;3.13;;;20.70;59.70;;;;;;5070463;28;20473;-49
2021/09/28 05:39:24;;;;;;;6.83;3.50;;;20.80;59.40;;;;;;5080174;28;21093;-49
2021/09/28 05:41:49;;;;;;;4.03;3.60;;;20.90;58.50;;;;;;5080067;28;20647;-47
2021/09/28 05:44:15;;;;;;;3.37;2.53;;;20.90;58.00;;;;;;5086432;28;20226;-47
2021/09/28 05:46:41;;;;;;;5.00;3.90;;;20.90;58.10;;;;;;5081602;28;20278;-52
2021/09/28 05:49:06;;;;;;;5.33;4.33;;;20.80;57.70;;;;;;5085302;28;20199;-48
2021/09/28 05:51:35;;;;;;;6.57;4.60;;;20.70;57.80;;;;;;5075148;28;20184;-47
2021/09/28 05:54:02;;;;;;;5.57;4.20;;;20.70;57.80;;;;;;5071894;28;20190;-48
2021/09/28 05:56:28;;;;;;;6.77;3.97;;;20.70;58.00;;;;;;5075950;28;20430;-47
2021/09/28 05:58:53;;;;;;;7.47;3.60;;;20.70;58.00;;;;;;5080176;28;20483;-47
2021/09/28 06:01:19;;;;;;;4.03;2.93;;;20.70;57.80;;;;;;5077872;28;20441;-48
2021/09/28 06:03:45;;;;;;;4.23;3.17;;;20.70;57.70;;;;;;5081585;28;20273;-49
2021/09/28 06:06:11;;;;;;;7.77;4.00;;;20.70;58.10;;;;;;5083664;28;20218;-47
2021/09/28 06:08:36;;;;;;;7.00;3.40;;;20.70;57.80;;;;;;5078099;28;20191;-49
2021/09/28 06:11:02;;;;;;;4.83;4.53;;;20.80;57.80;;;;;;5086954;28;20244;-51
2021/09/28 06:13:28;;;;;;;5.10;4.33;;;20.90;57.50;;;;;;5079367;28;20195;-47
2021/09/28 06:15:53;;;;;;;3.53;3.20;;;20.90;57.30;;;;;;5085370;28;20448;-47
2021/09/28 06:18:20;;;;;;;4.60;3.80;;;20.90;57.50;;;;;;5082695;28;20613;-48
2021/09/28 06:20:46;;;;;;;4.93;3.33;;;20.80;57.30;;;;;;5074643;28;20639;-49
2021/09/28 06:23:12;;;;;;;3.43;3.03;;;20.80;57.50;;;;;;5081323;28;20557;-49
2021/09/28 06:25:38;;;;;;;5.27;3.90;;;20.80;57.60;;;;;;5071940;28;20846;-47
2021/09/28 06:28:04;;;;;;;6.17;3.80;;;20.90;57.50;;;;;;5078811;28;20697;-48
2021/09/28 06:30:29;;;;;;;6.23;3.37;;;21.00;57.20;;;;;;5076000;28;20518;-47
2021/09/28 06:32:55;;;;;;;4.10;3.17;;;21.10;57.00;;;;;;5078747;28;20433;-49
2021/09/28 06:35:21;;;;;;;6.87;3.03;;;21.10;56.90;;;;;;5077278;28;20282;-47
2021/09/28 06:37:47;;;;;;;3.47;3.17;;;21.20;56.80;;;;;;5074319;28;20204;-45
2021/09/28 06:40:13;;;;;;;5.07;4.43;;;21.20;56.70;;;;;;5073658;28;20220;-46
2021/09/28 06:42:39;;;;;;;4.17;3.33;;;21.30;56.50;;;;;;5074266;28;20258;-48
2021/09/28 06:45:05;;;;;;;6.60;4.50;;;21.30;56.50;;;;;;5079699;28;20272;-46
2021/09/28 06:47:30;;;;;;;6.40;3.93;;;21.30;56.50;;;;;;5081018;28;20452;-47
2021/09/28 06:49:56;;;;;;;5.37;4.20;;;21.40;56.50;;;;;;5079335;28;20472;-46
2021/09/28 06:52:21;;;;;;;3.70;2.80;;;21.50;56.30;;;;;;5072862;28;20546;-46
2021/09/28 06:54:47;;;;;;;8.87;3.90;;;21.50;56.30;;;;;;5081745;28;20267;-47
2021/09/28 06:57:12;;;;;;;3.80;3.47;;;21.50;56.20;;;;;;5083698;28;20187;-47
2021/09/28 06:59:38;;;;;;;5.50;3.50;;;21.60;56.30;;;;;;5090894;28;20645;-48
2021/09/28 07:02:04;;;;;;;4.47;4.07;;;21.60;56.30;;;;;;5080959;28;20195;-47
2021/09/28 07:04:29;;;;;;;5.60;4.97;;;21.60;56.40;;;;;;5080057;28;20187;-48
2021/09/28 07:06:55;;;;;;;5.90;4.20;;;21.60;56.30;;;;;;5089369;28;20314;-48
2021/09/28 07:09:21;;;;;;;4.93;3.77;;;21.60;56.30;;;;;;5082000;28;20204;-46
2021/09/28 07:11:46;;;;;;;5.40;4.33;;;21.60;56.10;;;;;;5079888;28;20200;-46
2021/09/28 07:14:12;;;;;;;6.23;4.37;;;21.70;56.20;;;;;;5082511;28;20203;-49
2021/09/28 07:16:38;;;;;;;7.40;5.40;;;21.70;55.90;;;;;;5091506;28;20306;-46
2021/09/28 07:19:03;;;;;;;4.20;3.80;;;21.70;55.60;;;;;;5084581;28;20188;-50
2021/09/28 07:21:29;;;;;;;7.80;4.70;;;21.80;55.60;;;;;;5082349;28;20607;-46
2021/09/28 07:23:55;;;;;;;6.20;3.97;;;21.90;54.80;;;;;;5087753;28;20235;-48
2021/09/28 07:26:20;;;;;;;5.57;5.00;;;22.00;55.40;;;;;;5081903;28;20245;-46
2021/09/28 07:28:46;;;;;;;10.10;5.27;;;22.10;54.70;;;;;;5090793;28;20694;-48
2021/09/28 07:31:11;;;;;;;8.80;5.37;;;22.00;54.50;;;;;;5082020;28;20194;-47
2021/09/28 07:33:37;;;;;;;5.30;4.63;;;22.00;54.60;;;;;;5084486;28;20193;-47
2021/09/28 07:36:06;;;;;;;6.37;5.13;;;22.00;54.70;;;;;;5085741;28;20191;-46
2021/09/28 07:38:32;;;;;;;8.90;5.53;;;22.00;54.50;;;;;;5087817;28;20195;-47
2021/09/28 07:40:58;;;;;;;7.33;4.60;;;21.90;54.40;;;;;;5084248;28;20948;-49
2021/09/28 07:43:23;;;;;;;6.90;4.20;;;22.00;54.90;;;;;;5075595;28;20493;-47
2021/09/28 07:45:49;;;;;;;6.10;4.70;;;22.10;55.00;;;;;;5079283;28;20316;-48
2021/09/28 07:48:15;;;;;;;4.47;4.10;;;22.30;54.60;;;;;;5083886;28;20274;-48
2021/09/28 07:50:41;;;;;;;5.50;5.00;;;22.30;54.10;;;;;;5073590;28;20283;-46
2021/09/28 07:53:07;;;;;;;7.60;4.47;;;22.50;53.90;;;;;;5073720;28;20733;-46
2021/09/28 07:55:36;;;;;;;6.60;3.83;;;22.50;53.10;;;;;;5078596;28;20187;-48
2021/09/28 07:58:02;;;;;;;5.00;4.60;;;22.50;53.40;;;;;;5087111;28;20490;-48
2021/09/28 08:00:28;;;;;;;5.83;4.37;;;22.50;53.20;;;;;;5077170;28;20501;-47
2021/09/28 08:02:54;;;;;;;7.50;4.40;;;22.60;52.80;;;;;;5073394;28;20584;-48
2021/09/28 08:05:19;;;;;;;9.17;5.70;;;22.70;52.70;;;;;;5072648;28;20207;-48
2021/09/28 08:07:45;;;;;;;4.77;4.20;;;22.80;52.80;;;;;;5079514;28;20199;-47
2021/09/28 08:10:13;;;;;;;5.97;4.33;;;22.80;52.40;;;;;;5085173;28;20270;-47
2021/09/28 08:12:39;;;;;;;8.93;4.50;;;22.90;52.00;;;;;;5078331;28;20959;-47
2021/09/28 08:15:06;;;;;;;8.70;5.30;;;23.00;52.00;;;;;;5084739;28;20452;-50
2021/09/28 08:17:31;;;;;;;5.10;4.43;;;23.00;51.90;;;;;;5077139;28;20449;-50
2021/09/28 08:19:57;;;;;;;4.87;4.50;;;23.00;51.50;;;;;;5085869;28;20943;-49
2021/09/28 08:22:23;;;;;;;6.67;4.00;;;22.90;51.10;;;;;;5091605;28;20238;-49
2021/09/28 08:24:55;;;;;;;5.17;3.97;;;22.80;51.60;;;;;;5087601;28;20848;-50
2021/09/28 08:30:08;;;;;;;7.67;4.10;;;22.80;51.60;;;;;;5087848;28;20807;-48
2021/09/28 08:32:34;;;;;;;5.43;3.87;;;22.80;51.70;;;;;;5091826;28;20437;-48
2021/09/28 08:35:00;;;;;;;7.43;4.27;;;22.80;51.70;;;;;;5086427;28;20429;-50
2021/09/28 08:37:26;;;;;;;5.90;3.97;;;22.70;52.00;;;;;;5081414;28;20210;-49
2021/09/28 08:39:56;;;;;;;6.27;4.50;;;22.70;51.90;;;;;;5083244;28;21077;-49
2021/09/28 08:42:22;;;;;;;4.80;3.60;;;22.60;52.10;;;;;;5080302;28;20465;-48
2021/09/28 08:44:48;;;;;;;6.13;4.77;;;22.60;52.40;;;;;;5084010;28;21206;-52
2021/09/28 08:47:14;;;;;;;7.27;4.30;;;22.60;52.50;;;;;;5085131;28;20432;-48
2021/09/28 08:49:40;;;;;;;6.30;3.47;;;22.70;53.10;;;;;;5090405;28;20650;-52
2021/09/28 08:52:06;;;;;;;9.87;4.50;;;22.90;52.10;;;;;;5088294;28;20195;-47
2021/09/28 08:54:33;;;;;;;6.83;4.37;;;23.00;50.60;;;;;;5087475;28;20433;-48
2021/09/28 08:56:59;;;;;;;6.70;3.70;;;23.10;50.50;;;;;;5081834;28;20491;-50
2021/09/28 08:59:39;;;;;;;5.83;3.93;;;23.30;50.90;;;;;;5078241;28;20473;-51
2021/09/28 09:02:11;;;;;;;6.07;3.53;;;23.40;50.00;;;;;;5083330;28;20445;-49
2021/09/28 09:04:37;;;;;;;5.50;3.60;;;23.60;50.60;;;;;;5089173;28;20433;-49
2021/09/28 09:07:27;;;;;;;7.47;3.83;;;23.80;49.70;;;;;;5086367;28;20442;-48
2021/09/28 09:09:53;;;;;;;5.87;3.47;;;23.80;49.30;;;;;;5082287;28;20445;-50
2021/09/28 09:12:34;;;;;;;4.07;3.60;;;23.70;48.40;;;;;;5091072;28;21550;-52
2021/09/28 09:15:30;;;;;;;4.20;3.60;;;23.70;48.20;;;;;;5088103;28;20206;-46
2021/09/28 09:18:01;;;;;;;6.03;3.97;;;23.60;47.80;;;;;;5076621;28;20458;-50
2021/09/28 09:20:40;;;;;;;4.30;3.90;;;23.50;47.50;;;;;;5086155;28;20426;-47
2021/09/28 09:23:22;;;;;;;5.83;2.90;;;23.40;47.60;;;;;;5071873;28;20542;-51
2021/09/28 09:25:57;;;;;;;5.20;3.13;;;23.30;48.30;;;;;;5086934;28;20448;-48
2021/09/28 09:28:32;;;;;;;4.20;3.30;;;23.40;48.90;;;;;;5078305;28;21317;-47
2021/09/28 09:31:15;;;;;;;6.57;3.63;;;23.50;47.80;;;;;;5086624;28;20470;-49
2021/09/28 09:33:43;;;;;;;5.57;3.53;;;23.50;47.50;;;;;;5088420;28;20441;-49
2021/09/28 09:36:10;;;;;;;4.40;3.30;;;23.40;46.90;;;;;;5088094;28;20437;-50
2021/09/28 09:39:04;;;;;;;5.47;3.43;;;23.50;47.90;;;;;;5087165;28;20448;-49
2021/09/28 09:41:32;;;;;;;5.57;3.57;;;23.60;47.50;;;;;;5081439;28;20476;-48
2021/09/28 09:44:12;;;;;;;3.50;3.00;;;23.90;46.30;;;;;;5082324;28;20963;-48
2021/09/28 09:46:45;;;;;;;3.47;2.80;;;24.10;46.20;;;;;;5078113;28;20433;-48
2021/09/28 09:49:13;;;;;;;4.47;3.27;;;24.20;46.00;;;;;;5081956;28;20429;-47
2021/09/28 09:51:51;;;;;;;5.03;3.13;;;24.20;47.30;;;;;;5071175;28;20460;-49
2021/09/28 09:54:17;;;;;;;4.83;3.27;;;24.40;45.60;;;;;;5080859;28;20454;-48
2021/09/28 09:56:52;;;;;;;6.37;3.30;;;24.60;44.60;;;;;;5085647;28;20437;-53
2021/09/28 09:59:21;;;;;;;3.70;2.80;;;24.80;44.50;;;;;;5085024;28;20805;-52
2021/09/28 10:01:47;;;;;;;4.33;2.80;;;23.90;43.40;;;;;;5078440;28;20827;-49
2021/09/28 10:04:21;;;;;;;4.63;2.53;;;23.70;45.00;;;;;;5077552;28;20486;-49
2021/09/28 10:06:47;;;;;;;4.43;2.70;;;24.00;45.50;;;;;;5082136;28;20445;-53
2021/09/28 10:09:22;;;;;;;5.43;2.93;;;24.30;44.30;;;;;;5073833;28;20433;-48
2021/09/28 10:11:57;;;;;;;8.37;3.20;;;24.70;44.20;;;;;;5078320;28;20535;-50
2021/09/28 10:14:39;;;;;;;3.90;3.03;;;25.00;43.10;;;;;;5081123;28;21277;-49
2021/09/28 10:17:45;;;;;;;3.87;2.90;;;25.30;42.70;;;;;;5081405;28;20489;-48
2021/09/28 10:20:23;;;;;;;5.00;2.40;;;25.40;42.60;;;;;;5074370;28;20446;-47
2021/09/28 10:22:54;;;;;;;4.60;3.30;;;25.60;40.40;;;;;;5082204;28;20513;-50
2021/09/28 10:25:20;;;;;;;5.60;3.20;;;25.40;40.10;;;;;;5081157;28;20441;-48
2021/09/28 10:27:47;;;;;;;4.30;3.27;;;24.90;41.30;;;;;;5081641;28;20442;-49
2021/09/28 10:30:28;;;;;;;4.40;3.43;;;25.10;43.30;;;;;;5077544;28;20262;-50
2021/09/28 10:32:55;;;;;;;6.50;3.93;;;25.60;42.20;;;;;;5089514;28;20537;-49
2021/09/28 10:35:20;;;;;;;5.77;4.00;;;25.90;40.50;;;;;;5086395;28;20512;-48
2021/09/28 10:37:58;;;;;;;5.43;3.70;;;26.00;40.40;;;;;;5086726;28;20512;-50
2021/09/28 10:40:26;;;;;;;5.33;4.00;;;26.20;40.50;;;;;;5086625;28;20194;-50
2021/09/28 10:43:01;;;;;;;5.03;3.97;;;26.20;38.50;;;;;;5090692;28;20480;-50
2021/09/28 10:45:29;;;;;;;4.27;3.87;;;25.90;37.80;;;;;;5087585;28;20429;-49
2021/09/28 10:48:18;;;;;;;5.77;4.30;;;26.00;38.00;;;;;;5080256;28;20912;-49
2021/09/28 10:50:45;;;;;;;4.13;3.73;;;26.10;37.90;;;;;;5087323;28;20442;-48
2021/09/28 10:53:20;;;;;;;4.90;4.13;;;26.10;38.40;;;;;;5088418;28;20478;-48
2021/09/28 10:56:02;;;;;;;4.03;3.63;;;26.10;37.80;;;;;;5085551;28;20448;-48
2021/09/28 10:58:28;;;;;;;4.07;3.63;;;26.20;39.00;;;;;;5077358;28;20446;-49
2021/09/28 11:00:54;;;;;;;7.83;4.03;;;26.20;38.90;;;;;;5081480;28;21240;-51
2021/09/28 11:03:50;;;;;;;4.63;4.00;;;26.30;40.60;;;;;;5083842;28;20487;-48
2021/09/28 11:06:16;;;;;;;5.53;3.77;;;26.60;40.40;;;;;;5089596;28;20187;-50
2021/09/28 11:08:42;;;;;;;5.80;4.00;;;26.80;40.00;;;;;;5080771;28;20438;-50
2021/09/28 11:11:11;;;;;;;7.30;4.17;;;26.80;39.40;;;;;;5082161;28;21288;-51
2021/09/28 11:13:42;;;;;;;5.40;4.43;;;26.90;39.90;;;;;;5084349;28;20286;-48
2021/09/28 11:16:09;;;;;;;5.60;3.73;;;27.00;38.90;;;;;;5089477;28;20425;-51
2021/09/28 11:18:38;;;;;;;6.53;4.40;;;27.00;38.60;;;;;;5081075;28;20441;-48
2021/09/28 11:21:07;;;;;;;4.10;3.70;;;27.10;39.20;;;;;;5084469;28;20469;-48
2021/09/28 11:23:33;;;;;;;4.90;4.43;;;27.20;38.60;;;;;;5078036;28;20515;-51
2021/09/28 11:25:59;;;;;;;4.50;4.10;;;27.20;38.50;;;;;;5087213;28;20441;-48
2021/09/28 11:28:24;;;;;;;4.77;4.23;;;27.20;38.10;;;;;;5072857;28;20231;-49
2021/09/28 11:30:59;;;;;;;8.00;5.03;;;27.20;38.10;;;;;;5077945;28;20214;-48
2021/09/28 11:33:25;;;;;;;6.10;5.50;;;27.00;38.10;;;;;;5082283;28;20199;-48
2021/09/28 11:35:58;;;;;;;8.10;4.17;;;26.50;39.60;;;;;;5083780;28;20434;-48
2021/09/28 11:38:53;;;;;;;6.93;4.80;;;26.50;39.70;;;;;;5082307;28;20446;-49
2021/09/28 11:41:21;;;;;;;5.00;4.60;;;26.60;39.40;;;;;;5067540;28;20448;-51
2021/09/28 11:43:52;;;;;;;5.83;5.33;;;26.60;39.60;;;;;;5088136;28;20488;-51
2021/09/28 11:46:20;;;;;;;4.30;4.00;;;26.60;39.20;;;;;;5079319;28;20441;-51
2021/09/28 11:48:59;;;;;;;6.07;4.37;;;26.50;38.80;;;;;;5082835;28;20439;-49
2021/09/28 11:51:30;;;;;;;5.87;4.40;;;26.50;39.20;;;;;;5060255;28;20470;-48
2021/09/28 11:54:03;;;;;;;5.10;4.40;;;26.60;38.90;;;;;;5086056;28;20469;-48
2021/09/28 11:56:34;;;;;;;6.40;4.30;;;26.70;38.10;;;;;;5090955;28;20433;-48
2021/09/28 11:59:01;;;;;;;3.93;3.63;;;26.70;38.50;;;;;;5077215;28;20910;-48
2021/09/28 12:01:27;;;;;;;9.00;4.17;;;26.80;37.90;;;;;;5083313;28;20437;-49
2021/09/28 12:04:08;;;;;;;5.83;4.57;;;26.90;37.50;;;;;;5080867;28;20488;-48
2021/09/28 12:09:22;;;;;;;3.90;3.27;;;27.20;37.70;;;;;;5052405;28;20437;-50
2021/09/28 12:12:04;;;;;;;5.20;4.70;;;27.30;37.80;;;;;;5079380;28;20437;-49
2021/09/28 12:14:36;;;;;;;6.10;3.70;;;27.30;37.20;;;;;;5080136;28;20639;-50
2021/09/28 12:17:19;;;;;;;3.67;3.33;;;27.40;37.00;;;;;;5080972;28;20442;-49
2021/09/28 12:19:49;;;;;;;5.60;3.27;;;27.50;39.40;;;;;;5080452;28;20445;-49
2021/09/28 12:22:35;;;;;;;4.23;3.37;;;27.60;40.60;;;;;;5090584;28;20441;-50
2021/09/28 12:25:03;;;;;;;3.67;3.37;;;27.90;38.90;;;;;;5076690;28;20500;-48
2021/09/28 12:27:30;;;;;;;5.13;3.20;;;27.70;36.40;;;;;;5076313;28;20442;-51
2021/09/28 12:29:58;;;;;;;3.47;3.00;;;27.70;39.60;;;;;;5075748;28;20477;-50
2021/09/28 12:32:27;;;;;;;5.67;3.70;;;28.00;39.20;;;;;;5088210;28;20441;-48
2021/09/28 12:34:53;;;;;;;3.73;2.80;;;28.20;38.40;;;;;;5081640;28;20438;-52
2021/09/28 12:37:19;;;;;;;3.60;3.00;;;28.40;37.20;;;;;;5089517;28;20528;-53
2021/09/28 12:40:10;;;;;;;2.80;2.50;;;28.40;35.40;;;;;;5081751;28;20438;-54
2021/09/28 12:42:38;;;;;;;3.43;2.90;;;28.50;36.90;;;;;;5077763;28;21001;-51
2021/09/28 12:45:10;;;;;;;4.33;3.83;;;28.60;36.50;;;;;;5087904;28;20532;-49
2021/09/28 12:47:37;;;;;;;4.50;2.83;;;28.70;36.30;;;;;;5085685;28;20487;-51
2021/09/28 12:50:20;;;;;;;3.10;2.90;;;28.70;36.10;;;;;;5083588;28;20442;-51
2021/09/28 12:52:47;;;;;;;4.87;3.63;;;28.90;34.60;;;;;;5079708;28;20453;-49
2021/09/28 12:55:13;;;;;;;3.70;3.27;;;28.70;34.30;;;;;;5078663;28;20447;-49
2021/09/28 12:57:39;;;;;;;4.43;3.20;;;28.70;35.70;;;;;;5079273;28;20516;-50